sensor_id;sensor_type;location;lat;lon;timestamp;P1;durP1;ratioP1;P2;durP2;ratioP2
25437;SDS011;13364;49.084;9.978;2023-07-29T00:01:57;12.52;;;9.95;;
25437;SDS011;13364;49.084;9.978;2023-07-29T00:04:24;11.00;;;8.68;;
25437;SDS011;13364;49.084;9.978;2023-07-29T00:06:51;12.27;;;9.40;;
25437;SDS011;13364;49.084;9.978;2023-07-29T00:09:18;9.80;;;7.70;;
25437;SDS011;13364;49.084;9.978;2023-07-29T00:11:45;12.18;;;7.55;;
25437;SDS011;13364;49.084;9.978;2023-07-29T00:17:43;8.70;;;6.53;;
25437;SDS011;13364;49.084;9.978;2023-07-29T00:20:11;7.22;;;6.25;;
25437;SDS011;13364;49.084;9.978;2023-07-29T00:22:38;10.68;;;6.35;;
25437;SDS011;13364;49.084;9.978;2023-07-29T00:25:05;6.68;;;5.65;;
25437;SDS011;13364;49.084;9.978;2023-07-29T00:27:32;9.32;;;5.88;;
25437;SDS011;13364;49.084;9.978;2023-07-29T00:29:59;8.55;;;5.43;;
25437;SDS011;13364;49.084;9.978;2023-07-29T00:32:29;7.25;;;5.90;;
25437;SDS011;13364;49.084;9.978;2023-07-29T00:34:56;6.25;;;5.10;;
25437;SDS011;13364;49.084;9.978;2023-07-29T00:37:23;5.75;;;4.85;;
25437;SDS011;13364;49.084;9.978;2023-07-29T00:39:50;6.22;;;4.22;;
25437;SDS011;13364;49.084;9.978;2023-07-29T00:42:17;5.18;;;4.68;;
25437;SDS011;13364;49.084;9.978;2023-07-29T00:44:44;5.70;;;4.85;;
25437;SDS011;13364;49.084;9.978;2023-07-29T00:47:12;4.70;;;3.80;;
25437;SDS011;13364;49.084;9.978;2023-07-29T00:49:42;6.75;;;4.10;;
25437;SDS011;13364;49.084;9.978;2023-07-29T00:55:05;4.53;;;2.78;;
25437;SDS011;13364;49.084;9.978;2023-07-29T00:57:33;4.70;;;3.05;;
25437;SDS011;13364;49.084;9.978;2023-07-29T01:02:31;6.65;;;3.20;;
25437;SDS011;13364;49.084;9.978;2023-07-29T01:04:59;5.35;;;2.53;;
25437;SDS011;13364;49.084;9.978;2023-07-29T01:07:36;7.53;;;2.33;;
25437;SDS011;13364;49.084;9.978;2023-07-29T01:18:45;3.72;;;2.08;;
25437;SDS011;13364;49.084;9.978;2023-07-29T01:21:14;4.05;;;2.60;;
25437;SDS011;13364;49.084;9.978;2023-07-29T01:23:44;2.63;;;2.42;;
25437;SDS011;13364;49.084;9.978;2023-07-29T01:26:11;3.00;;;2.22;;
25437;SDS011;13364;49.084;9.978;2023-07-29T01:28:39;2.30;;;1.90;;
25437;SDS011;13364;49.084;9.978;2023-07-29T01:31:10;2.17;;;1.80;;
25437;SDS011;13364;49.084;9.978;2023-07-29T01:33:45;4.00;;;2.15;;
25437;SDS011;13364;49.084;9.978;2023-07-29T01:36:20;2.22;;;2.03;;
25437;SDS011;13364;49.084;9.978;2023-07-29T01:38:49;2.47;;;1.88;;
25437;SDS011;13364;49.084;9.978;2023-07-29T01:41:19;2.75;;;1.77;;
25437;SDS011;13364;49.084;9.978;2023-07-29T01:43:48;2.38;;;1.58;;
25437;SDS011;13364;49.084;9.978;2023-07-29T01:46:15;2.53;;;1.90;;
25437;SDS011;13364;49.084;9.978;2023-07-29T01:48:42;1.85;;;1.30;;
25437;SDS011;13364;49.084;9.978;2023-07-29T01:51:12;2.15;;;1.42;;
25437;SDS011;13364;49.084;9.978;2023-07-29T01:53:39;1.67;;;1.35;;
25437;SDS011;13364;49.084;9.978;2023-07-29T01:56:07;3.88;;;1.50;;
25437;SDS011;13364;49.084;9.978;2023-07-29T01:58:37;3.78;;;1.80;;
25437;SDS011;13364;49.084;9.978;2023-07-29T02:01:04;5.18;;;1.63;;
25437;SDS011;13364;49.084;9.978;2023-07-29T02:03:31;2.42;;;1.40;;
25437;SDS011;13364;49.084;9.978;2023-07-29T02:05:58;1.50;;;1.17;;
25437;SDS011;13364;49.084;9.978;2023-07-29T02:08:26;2.10;;;1.40;;
25437;SDS011;13364;49.084;9.978;2023-07-29T02:10:53;2.75;;;1.27;;
25437;SDS011;13364;49.084;9.978;2023-07-29T02:13:20;1.40;;;1.23;;
25437;SDS011;13364;49.084;9.978;2023-07-29T02:15:47;1.48;;;1.38;;
25437;SDS011;13364;49.084;9.978;2023-07-29T02:18:14;1.55;;;1.45;;
25437;SDS011;13364;49.084;9.978;2023-07-29T02:20:41;2.33;;;1.50;;
25437;SDS011;13364;49.084;9.978;2023-07-29T02:23:15;2.47;;;1.38;;
25437;SDS011;13364;49.084;9.978;2023-07-29T02:25:43;2.78;;;1.55;;
25437;SDS011;13364;49.084;9.978;2023-07-29T02:28:11;2.47;;;1.10;;
25437;SDS011;13364;49.084;9.978;2023-07-29T02:30:40;2.17;;;1.70;;
25437;SDS011;13364;49.084;9.978;2023-07-29T02:33:07;1.52;;;1.42;;
25437;SDS011;13364;49.084;9.978;2023-07-29T02:35:35;2.03;;;1.50;;
25437;SDS011;13364;49.084;9.978;2023-07-29T02:38:02;2.17;;;1.35;;
25437;SDS011;13364;49.084;9.978;2023-07-29T02:40:29;2.10;;;1.65;;
25437;SDS011;13364;49.084;9.978;2023-07-29T02:46:35;1.70;;;1.08;;
25437;SDS011;13364;49.084;9.978;2023-07-29T02:49:03;2.08;;;1.38;;
25437;SDS011;13364;49.084;9.978;2023-07-29T02:51:32;1.08;;;0.98;;
25437;SDS011;13364;49.084;9.978;2023-07-29T02:53:59;1.50;;;1.30;;
25437;SDS011;13364;49.084;9.978;2023-07-29T02:56:27;1.40;;;1.30;;
25437;SDS011;13364;49.084;9.978;2023-07-29T02:58:54;7.13;;;1.60;;
25437;SDS011;13364;49.084;9.978;2023-07-29T03:01:22;3.28;;;1.33;;
25437;SDS011;13364;49.084;9.978;2023-07-29T03:03:51;1.50;;;1.23;;
25437;SDS011;13364;49.084;9.978;2023-07-29T03:06:18;1.30;;;1.20;;
25437;SDS011;13364;49.084;9.978;2023-07-29T03:08:45;1.60;;;1.30;;
25437;SDS011;13364;49.084;9.978;2023-07-29T03:11:13;1.42;;;1.20;;
25437;SDS011;13364;49.084;9.978;2023-07-29T03:13:41;1.60;;;1.50;;
25437;SDS011;13364;49.084;9.978;2023-07-29T03:16:15;3.30;;;1.35;;
25437;SDS011;13364;49.084;9.978;2023-07-29T03:18:52;1.75;;;1.27;;
25437;SDS011;13364;49.084;9.978;2023-07-29T03:21:19;2.33;;;1.40;;
25437;SDS011;13364;49.084;9.978;2023-07-29T03:23:46;2.33;;;1.50;;
25437;SDS011;13364;49.084;9.978;2023-07-29T03:26:13;1.50;;;1.40;;
25437;SDS011;13364;49.084;9.978;2023-07-29T03:28:41;3.40;;;1.20;;
25437;SDS011;13364;49.084;9.978;2023-07-29T03:31:09;1.60;;;1.50;;
25437;SDS011;13364;49.084;9.978;2023-07-29T03:33:38;2.65;;;1.15;;
25437;SDS011;13364;49.084;9.978;2023-07-29T03:36:05;1.20;;;1.13;;
25437;SDS011;13364;49.084;9.978;2023-07-29T03:38:32;4.78;;;1.38;;
25437;SDS011;13364;49.084;9.978;2023-07-29T03:41:02;2.70;;;1.13;;
25437;SDS011;13364;49.084;9.978;2023-07-29T03:43:29;2.95;;;1.33;;
25437;SDS011;13364;49.084;9.978;2023-07-29T03:45:59;3.88;;;1.33;;
25437;SDS011;13364;49.084;9.978;2023-07-29T03:51:16;1.38;;;1.00;;
25437;SDS011;13364;49.084;9.978;2023-07-29T03:53:43;3.58;;;1.42;;
25437;SDS011;13364;49.084;9.978;2023-07-29T03:56:10;1.38;;;1.23;;
25437;SDS011;13364;49.084;9.978;2023-07-29T03:58:37;2.00;;;1.13;;
25437;SDS011;13364;49.084;9.978;2023-07-29T04:01:04;2.78;;;1.20;;
25437;SDS011;13364;49.084;9.978;2023-07-29T04:03:33;2.38;;;1.58;;
25437;SDS011;13364;49.084;9.978;2023-07-29T04:06:01;1.30;;;1.20;;
25437;SDS011;13364;49.084;9.978;2023-07-29T04:08:28;2.40;;;1.60;;
25437;SDS011;13364;49.084;9.978;2023-07-29T04:10:55;1.30;;;1.20;;
25437;SDS011;13364;49.084;9.978;2023-07-29T04:13:23;1.98;;;1.30;;
25437;SDS011;13364;49.084;9.978;2023-07-29T04:15:50;1.42;;;1.17;;
25437;SDS011;13364;49.084;9.978;2023-07-29T04:18:17;4.40;;;1.35;;
25437;SDS011;13364;49.084;9.978;2023-07-29T04:20:45;1.27;;;1.05;;
25437;SDS011;13364;49.084;9.978;2023-07-29T04:23:12;2.45;;;1.20;;
25437;SDS011;13364;49.084;9.978;2023-07-29T04:25:40;2.50;;;1.13;;
25437;SDS011;13364;49.084;9.978;2023-07-29T04:28:07;2.03;;;1.50;;
25437;SDS011;13364;49.084;9.978;2023-07-29T04:30:34;1.95;;;1.50;;
25437;SDS011;13364;49.084;9.978;2023-07-29T04:33:02;1.30;;;1.20;;
25437;SDS011;13364;49.084;9.978;2023-07-29T04:35:30;2.15;;;1.20;;
25437;SDS011;13364;49.084;9.978;2023-07-29T04:37:57;2.45;;;1.30;;
25437;SDS011;13364;49.084;9.978;2023-07-29T04:40:24;2.20;;;1.23;;
25437;SDS011;13364;49.084;9.978;2023-07-29T04:42:51;2.85;;;1.67;;
25437;SDS011;13364;49.084;9.978;2023-07-29T04:45:18;1.63;;;1.40;;
25437;SDS011;13364;49.084;9.978;2023-07-29T04:47:45;1.48;;;1.38;;
25437;SDS011;13364;49.084;9.978;2023-07-29T04:50:13;4.35;;;1.40;;
25437;SDS011;13364;49.084;9.978;2023-07-29T04:52:40;1.73;;;1.40;;
25437;SDS011;13364;49.084;9.978;2023-07-29T04:55:07;1.27;;;1.10;;
25437;SDS011;13364;49.084;9.978;2023-07-29T04:57:34;2.22;;;1.10;;
25437;SDS011;13364;49.084;9.978;2023-07-29T05:00:02;3.40;;;1.20;;
25437;SDS011;13364;49.084;9.978;2023-07-29T05:02:29;4.32;;;1.55;;
25437;SDS011;13364;49.084;9.978;2023-07-29T05:04:56;3.45;;;1.27;;
25437;SDS011;13364;49.084;9.978;2023-07-29T05:07:24;3.47;;;1.30;;
25437;SDS011;13364;49.084;9.978;2023-07-29T05:09:51;2.40;;;1.20;;
25437;SDS011;13364;49.084;9.978;2023-07-29T05:12:18;2.67;;;1.27;;
25437;SDS011;13364;49.084;9.978;2023-07-29T05:14:45;3.42;;;1.80;;
25437;SDS011;13364;49.084;9.978;2023-07-29T05:17:13;6.10;;;1.70;;
25437;SDS011;13364;49.084;9.978;2023-07-29T05:19:40;3.53;;;1.70;;
25437;SDS011;13364;49.084;9.978;2023-07-29T05:22:07;2.83;;;1.85;;
25437;SDS011;13364;49.084;9.978;2023-07-29T05:24:34;3.13;;;1.83;;
25437;SDS011;13364;49.084;9.978;2023-07-29T05:27:01;2.50;;;1.90;;
25437;SDS011;13364;49.084;9.978;2023-07-29T05:29:28;4.50;;;1.92;;
25437;SDS011;13364;49.084;9.978;2023-07-29T05:31:55;3.20;;;2.28;;
25437;SDS011;13364;49.084;9.978;2023-07-29T05:34:23;4.45;;;2.28;;
25437;SDS011;13364;49.084;9.978;2023-07-29T05:36:50;9.27;;;2.33;;
25437;SDS011;13364;49.084;9.978;2023-07-29T05:39:17;3.13;;;2.10;;
25437;SDS011;13364;49.084;9.978;2023-07-29T05:41:44;2.13;;;1.55;;
25437;SDS011;13364;49.084;9.978;2023-07-29T05:44:12;4.68;;;1.90;;
25437;SDS011;13364;49.084;9.978;2023-07-29T05:46:40;2.67;;;1.80;;
25437;SDS011;13364;49.084;9.978;2023-07-29T05:49:07;4.80;;;1.88;;
25437;SDS011;13364;49.084;9.978;2023-07-29T05:51:34;2.47;;;2.00;;
25437;SDS011;13364;49.084;9.978;2023-07-29T05:54:01;4.68;;;2.78;;
25437;SDS011;13364;49.084;9.978;2023-07-29T05:56:28;7.97;;;2.75;;
25437;SDS011;13364;49.084;9.978;2023-07-29T05:58:56;4.72;;;2.22;;
25437;SDS011;13364;49.084;9.978;2023-07-29T06:01:23;3.47;;;2.30;;
25437;SDS011;13364;49.084;9.978;2023-07-29T06:03:51;3.25;;;1.88;;
25437;SDS011;13364;49.084;9.978;2023-07-29T06:06:18;2.80;;;2.30;;
25437;SDS011;13364;49.084;9.978;2023-07-29T06:08:45;3.00;;;2.10;;
25437;SDS011;13364;49.084;9.978;2023-07-29T06:11:12;2.85;;;2.30;;
25437;SDS011;13364;49.084;9.978;2023-07-29T06:13:39;5.55;;;2.70;;
25437;SDS011;13364;49.084;9.978;2023-07-29T06:16:06;3.35;;;1.90;;
25437;SDS011;13364;49.084;9.978;2023-07-29T06:18:34;2.30;;;2.08;;
25437;SDS011;13364;49.084;9.978;2023-07-29T06:21:01;4.90;;;2.55;;
25437;SDS011;13364;49.084;9.978;2023-07-29T06:23:28;2.95;;;2.22;;
25437;SDS011;13364;49.084;9.978;2023-07-29T06:25:56;4.68;;;2.65;;
25437;SDS011;13364;49.084;9.978;2023-07-29T06:28:23;2.58;;;2.22;;
25437;SDS011;13364;49.084;9.978;2023-07-29T06:30:50;2.33;;;2.10;;
25437;SDS011;13364;49.084;9.978;2023-07-29T06:33:17;4.22;;;2.58;;
25437;SDS011;13364;49.084;9.978;2023-07-29T06:35:44;2.17;;;1.67;;
25437;SDS011;13364;49.084;9.978;2023-07-29T06:38:11;3.15;;;1.92;;
25437;SDS011;13364;49.084;9.978;2023-07-29T06:40:38;2.70;;;2.08;;
25437;SDS011;13364;49.084;9.978;2023-07-29T06:43:05;2.75;;;2.10;;
25437;SDS011;13364;49.084;9.978;2023-07-29T06:45:32;3.88;;;2.20;;
25437;SDS011;13364;49.084;9.978;2023-07-29T06:48:00;3.00;;;2.05;;
25437;SDS011;13364;49.084;9.978;2023-07-29T06:50:27;2.50;;;2.10;;
25437;SDS011;13364;49.084;9.978;2023-07-29T06:52:54;2.35;;;2.00;;
25437;SDS011;13364;49.084;9.978;2023-07-29T06:55:21;2.40;;;2.20;;
25437;SDS011;13364;49.084;9.978;2023-07-29T06:57:48;3.47;;;2.22;;
25437;SDS011;13364;49.084;9.978;2023-07-29T07:00:15;2.88;;;1.80;;
25437;SDS011;13364;49.084;9.978;2023-07-29T07:02:42;2.40;;;2.20;;
25437;SDS011;13364;49.084;9.978;2023-07-29T07:05:09;2.88;;;2.15;;
25437;SDS011;13364;49.084;9.978;2023-07-29T07:07:36;2.40;;;1.50;;
25437;SDS011;13364;49.084;9.978;2023-07-29T07:10:04;1.92;;;1.75;;
25437;SDS011;13364;49.084;9.978;2023-07-29T07:12:31;2.25;;;2.05;;
25437;SDS011;13364;49.084;9.978;2023-07-29T07:14:59;2.20;;;2.00;;
25437;SDS011;13364;49.084;9.978;2023-07-29T07:17:27;2.65;;;2.17;;
25437;SDS011;13364;49.084;9.978;2023-07-29T07:19:54;4.43;;;1.92;;
25437;SDS011;13364;49.084;9.978;2023-07-29T07:22:21;3.80;;;1.92;;
25437;SDS011;13364;49.084;9.978;2023-07-29T07:24:48;3.25;;;2.35;;
25437;SDS011;13364;49.084;9.978;2023-07-29T07:27:15;2.40;;;2.13;;
25437;SDS011;13364;49.084;9.978;2023-07-29T07:29:42;3.30;;;1.77;;
25437;SDS011;13364;49.084;9.978;2023-07-29T07:32:09;2.05;;;1.83;;
25437;SDS011;13364;49.084;9.978;2023-07-29T07:34:36;4.20;;;2.05;;
25437;SDS011;13364;49.084;9.978;2023-07-29T07:37:03;2.33;;;1.95;;
25437;SDS011;13364;49.084;9.978;2023-07-29T07:39:31;2.83;;;2.15;;
25437;SDS011;13364;49.084;9.978;2023-07-29T07:41:58;4.47;;;2.25;;
25437;SDS011;13364;49.084;9.978;2023-07-29T07:44:25;2.53;;;2.20;;
25437;SDS011;13364;49.084;9.978;2023-07-29T07:46:52;2.75;;;2.28;;
25437;SDS011;13364;49.084;9.978;2023-07-29T07:49:20;2.92;;;2.45;;
25437;SDS011;13364;49.084;9.978;2023-07-29T07:51:47;2.20;;;2.00;;
25437;SDS011;13364;49.084;9.978;2023-07-29T07:54:14;2.55;;;2.30;;
25437;SDS011;13364;49.084;9.978;2023-07-29T07:56:41;3.05;;;2.40;;
25437;SDS011;13364;49.084;9.978;2023-07-29T07:59:09;2.88;;;1.85;;
25437;SDS011;13364;49.084;9.978;2023-07-29T08:01:39;3.30;;;2.83;;
25437;SDS011;13364;49.084;9.978;2023-07-29T08:04:06;5.07;;;2.42;;
25437;SDS011;13364;49.084;9.978;2023-07-29T08:06:34;3.10;;;2.70;;
25437;SDS011;13364;49.084;9.978;2023-07-29T08:09:02;3.25;;;2.80;;
25437;SDS011;13364;49.084;9.978;2023-07-29T08:11:30;4.53;;;2.40;;
25437;SDS011;13364;49.084;9.978;2023-07-29T08:17:18;3.78;;;2.72;;
25437;SDS011;13364;49.084;9.978;2023-07-29T08:19:45;3.20;;;2.90;;
25437;SDS011;13364;49.084;9.978;2023-07-29T08:22:12;4.78;;;2.88;;
25437;SDS011;13364;49.084;9.978;2023-07-29T08:24:39;3.88;;;2.95;;
25437;SDS011;13364;49.084;9.978;2023-07-29T08:27:07;4.57;;;2.55;;
25437;SDS011;13364;49.084;9.978;2023-07-29T08:29:34;3.75;;;2.53;;
25437;SDS011;13364;49.084;9.978;2023-07-29T08:32:01;2.30;;;2.03;;
25437;SDS011;13364;49.084;9.978;2023-07-29T08:34:28;3.45;;;3.13;;
25437;SDS011;13364;49.084;9.978;2023-07-29T08:36:55;3.15;;;2.50;;
25437;SDS011;13364;49.084;9.978;2023-07-29T08:39:22;6.05;;;2.97;;
25437;SDS011;13364;49.084;9.978;2023-07-29T08:42:02;4.00;;;2.92;;
25437;SDS011;13364;49.084;9.978;2023-07-29T08:44:40;3.00;;;2.67;;
25437;SDS011;13364;49.084;9.978;2023-07-29T08:47:08;3.45;;;2.78;;
25437;SDS011;13364;49.084;9.978;2023-07-29T08:49:36;5.65;;;3.22;;
25437;SDS011;13364;49.084;9.978;2023-07-29T08:52:05;4.33;;;2.93;;
25437;SDS011;13364;49.084;9.978;2023-07-29T08:54:35;3.67;;;3.03;;
25437;SDS011;13364;49.084;9.978;2023-07-29T08:57:02;3.67;;;2.80;;
25437;SDS011;13364;49.084;9.978;2023-07-29T08:59:29;3.03;;;2.67;;
25437;SDS011;13364;49.084;9.978;2023-07-29T09:01:57;4.72;;;2.30;;
25437;SDS011;13364;49.084;9.978;2023-07-29T09:04:25;4.40;;;2.40;;
25437;SDS011;13364;49.084;9.978;2023-07-29T09:06:52;3.33;;;2.30;;
25437;SDS011;13364;49.084;9.978;2023-07-29T09:09:22;3.55;;;2.50;;
25437;SDS011;13364;49.084;9.978;2023-07-29T09:11:49;2.75;;;2.20;;
25437;SDS011;13364;49.084;9.978;2023-07-29T09:14:19;2.38;;;1.88;;
25437;SDS011;13364;49.084;9.978;2023-07-29T09:16:46;3.97;;;2.47;;
25437;SDS011;13364;49.084;9.978;2023-07-29T09:22:54;5.25;;;2.22;;
25437;SDS011;13364;49.084;9.978;2023-07-29T09:25:42;3.35;;;1.70;;
25437;SDS011;13364;49.084;9.978;2023-07-29T09:31:06;5.13;;;2.25;;
25437;SDS011;13364;49.084;9.978;2023-07-29T09:33:45;2.85;;;1.92;;
25437;SDS011;13364;49.084;9.978;2023-07-29T09:36:12;2.17;;;1.95;;
25437;SDS011;13364;49.084;9.978;2023-07-29T09:38:39;2.58;;;1.80;;
25437;SDS011;13364;49.084;9.978;2023-07-29T09:41:06;2.90;;;1.67;;
25437;SDS011;13364;49.084;9.978;2023-07-29T09:43:34;4.07;;;1.65;;
25437;SDS011;13364;49.084;9.978;2023-07-29T09:46:02;2.08;;;1.42;;
25437;SDS011;13364;49.084;9.978;2023-07-29T09:48:34;2.42;;;1.80;;
25437;SDS011;13364;49.084;9.978;2023-07-29T09:51:11;2.75;;;2.08;;
25437;SDS011;13364;49.084;9.978;2023-07-29T09:53:43;2.80;;;1.52;;
25437;SDS011;13364;49.084;9.978;2023-07-29T09:56:14;2.75;;;1.40;;
25437;SDS011;13364;49.084;9.978;2023-07-29T09:58:42;2.35;;;1.23;;
25437;SDS011;13364;49.084;9.978;2023-07-29T10:01:12;2.30;;;1.50;;
25437;SDS011;13364;49.084;9.978;2023-07-29T10:03:40;2.58;;;1.10;;
25437;SDS011;13364;49.084;9.978;2023-07-29T10:06:09;3.30;;;1.60;;
25437;SDS011;13364;49.084;9.978;2023-07-29T10:08:37;2.47;;;1.95;;
25437;SDS011;13364;49.084;9.978;2023-07-29T10:11:06;2.15;;;1.50;;
25437;SDS011;13364;49.084;9.978;2023-07-29T10:13:35;1.40;;;1.23;;
25437;SDS011;13364;49.084;9.978;2023-07-29T10:16:03;2.17;;;1.20;;
25437;SDS011;13364;49.084;9.978;2023-07-29T10:18:32;1.50;;;1.40;;
25437;SDS011;13364;49.084;9.978;2023-07-29T10:21:00;2.47;;;1.50;;
25437;SDS011;13364;49.084;9.978;2023-07-29T10:26:05;2.75;;;1.65;;
25437;SDS011;13364;49.084;9.978;2023-07-29T10:28:38;1.55;;;1.45;;
25437;SDS011;13364;49.084;9.978;2023-07-29T10:31:07;3.05;;;1.60;;
25437;SDS011;13364;49.084;9.978;2023-07-29T10:33:34;1.88;;;1.60;;
25437;SDS011;13364;49.084;9.978;2023-07-29T10:36:03;1.80;;;1.38;;
25437;SDS011;13364;49.084;9.978;2023-07-29T10:38:30;3.25;;;1.95;;
25437;SDS011;13364;49.084;9.978;2023-07-29T10:40:58;2.17;;;1.70;;
25437;SDS011;13364;49.084;9.978;2023-07-29T10:43:36;2.15;;;1.50;;
25437;SDS011;13364;49.084;9.978;2023-07-29T10:46:22;2.28;;;1.60;;
25437;SDS011;13364;49.084;9.978;2023-07-29T10:54:00;2.08;;;1.88;;
25437;SDS011;13364;49.084;9.978;2023-07-29T10:56:42;3.35;;;1.83;;
25437;SDS011;13364;49.084;9.978;2023-07-29T11:01:56;4.13;;;1.90;;
25437;SDS011;13364;49.084;9.978;2023-07-29T11:04:30;2.67;;;1.92;;
25437;SDS011;13364;49.084;9.978;2023-07-29T11:09:39;2.42;;;1.73;;
25437;SDS011;13364;49.084;9.978;2023-07-29T11:12:41;2.10;;;1.50;;
25437;SDS011;13364;49.084;9.978;2023-07-29T11:15:13;1.90;;;1.70;;
25437;SDS011;13364;49.084;9.978;2023-07-29T11:20:15;2.53;;;1.52;;
25437;SDS011;13364;49.084;9.978;2023-07-29T11:22:44;5.00;;;1.80;;
25437;SDS011;13364;49.084;9.978;2023-07-29T11:25:15;2.67;;;1.88;;
25437;SDS011;13364;49.084;9.978;2023-07-29T11:27:43;2.00;;;1.80;;
25437;SDS011;13364;49.084;9.978;2023-07-29T11:30:12;1.73;;;1.60;;
25437;SDS011;13364;49.084;9.978;2023-07-29T11:32:41;2.38;;;1.52;;
25437;SDS011;13364;49.084;9.978;2023-07-29T11:35:12;3.05;;;1.73;;
25437;SDS011;13364;49.084;9.978;2023-07-29T11:37:46;3.42;;;2.08;;
25437;SDS011;13364;49.084;9.978;2023-07-29T11:40:16;2.30;;;1.65;;
25437;SDS011;13364;49.084;9.978;2023-07-29T11:42:50;3.50;;;1.73;;
25437;SDS011;13364;49.084;9.978;2023-07-29T11:45:19;3.40;;;1.75;;
25437;SDS011;13364;49.084;9.978;2023-07-29T11:47:55;2.63;;;1.40;;
25437;SDS011;13364;49.084;9.978;2023-07-29T11:50:25;3.83;;;1.38;;
25437;SDS011;13364;49.084;9.978;2023-07-29T11:52:53;2.30;;;1.60;;
25437;SDS011;13364;49.084;9.978;2023-07-29T11:55:21;1.60;;;1.40;;
25437;SDS011;13364;49.084;9.978;2023-07-29T11:57:51;2.08;;;1.63;;
25437;SDS011;13364;49.084;9.978;2023-07-29T12:00:19;3.50;;;1.42;;
25437;SDS011;13364;49.084;9.978;2023-07-29T12:02:49;7.43;;;1.73;;
25437;SDS011;13364;49.084;9.978;2023-07-29T12:05:29;1.42;;;1.33;;
25437;SDS011;13364;49.084;9.978;2023-07-29T12:07:59;5.47;;;1.60;;
25437;SDS011;13364;49.084;9.978;2023-07-29T12:10:45;4.35;;;1.50;;
25437;SDS011;13364;49.084;9.978;2023-07-29T12:13:13;1.77;;;1.35;;
25437;SDS011;13364;49.084;9.978;2023-07-29T12:15:41;5.82;;;1.30;;
25437;SDS011;13364;49.084;9.978;2023-07-29T12:18:09;1.92;;;1.40;;
25437;SDS011;13364;49.084;9.978;2023-07-29T12:20:39;1.15;;;1.05;;
25437;SDS011;13364;49.084;9.978;2023-07-29T12:23:07;1.50;;;1.35;;
25437;SDS011;13364;49.084;9.978;2023-07-29T12:25:34;2.00;;;1.30;;
25437;SDS011;13364;49.084;9.978;2023-07-29T12:28:05;1.30;;;1.20;;
25437;SDS011;13364;49.084;9.978;2023-07-29T12:30:33;1.80;;;1.15;;
25437;SDS011;13364;49.084;9.978;2023-07-29T12:36:05;1.20;;;1.10;;
25437;SDS011;13364;49.084;9.978;2023-07-29T12:38:32;1.88;;;1.20;;
25437;SDS011;13364;49.084;9.978;2023-07-29T12:41:00;3.10;;;1.50;;
25437;SDS011;13364;49.084;9.978;2023-07-29T12:43:27;4.97;;;1.40;;
25437;SDS011;13364;49.084;9.978;2023-07-29T12:45:56;2.72;;;1.30;;
25437;SDS011;13364;49.084;9.978;2023-07-29T12:48:24;1.30;;;1.20;;
25437;SDS011;13364;49.084;9.978;2023-07-29T12:50:51;1.48;;;1.17;;
25437;SDS011;13364;49.084;9.978;2023-07-29T12:53:18;1.55;;;1.40;;
25437;SDS011;13364;49.084;9.978;2023-07-29T12:55:45;2.05;;;1.25;;
25437;SDS011;13364;49.084;9.978;2023-07-29T12:58:13;1.25;;;1.15;;
25437;SDS011;13364;49.084;9.978;2023-07-29T13:00:40;3.20;;;1.23;;
25437;SDS011;13364;49.084;9.978;2023-07-29T13:03:07;1.67;;;1.40;;
25437;SDS011;13364;49.084;9.978;2023-07-29T13:05:34;1.23;;;1.08;;
25437;SDS011;13364;49.084;9.978;2023-07-29T13:08:01;4.90;;;1.35;;
25437;SDS011;13364;49.084;9.978;2023-07-29T13:10:29;3.22;;;1.50;;
25437;SDS011;13364;49.084;9.978;2023-07-29T13:12:56;1.50;;;1.38;;
25437;SDS011;13364;49.084;9.978;2023-07-29T13:15:23;4.10;;;1.60;;
25437;SDS011;13364;49.084;9.978;2023-07-29T13:17:50;13.27;;;1.73;;
25437;SDS011;13364;49.084;9.978;2023-07-29T13:20:17;1.98;;;1.40;;
25437;SDS011;13364;49.084;9.978;2023-07-29T13:22:44;2.55;;;1.52;;
25437;SDS011;13364;49.084;9.978;2023-07-29T13:25:11;1.63;;;1.40;;
25437;SDS011;13364;49.084;9.978;2023-07-29T13:27:38;1.52;;;1.42;;
25437;SDS011;13364;49.084;9.978;2023-07-29T13:30:06;1.58;;;1.30;;
25437;SDS011;13364;49.084;9.978;2023-07-29T13:32:33;1.27;;;1.17;;
25437;SDS011;13364;49.084;9.978;2023-07-29T13:35:01;3.28;;;1.48;;
25437;SDS011;13364;49.084;9.978;2023-07-29T13:37:28;2.42;;;1.60;;
25437;SDS011;13364;49.084;9.978;2023-07-29T13:39:55;1.88;;;1.45;;
25437;SDS011;13364;49.084;9.978;2023-07-29T13:42:22;1.25;;;1.15;;
25437;SDS011;13364;49.084;9.978;2023-07-29T13:44:49;2.50;;;1.30;;
25437;SDS011;13364;49.084;9.978;2023-07-29T13:47:16;4.03;;;1.65;;
25437;SDS011;13364;49.084;9.978;2023-07-29T13:49:43;2.72;;;1.77;;
25437;SDS011;13364;49.084;9.978;2023-07-29T13:52:15;3.00;;;1.65;;
25437;SDS011;13364;49.084;9.978;2023-07-29T13:54:42;1.60;;;1.50;;
25437;SDS011;13364;49.084;9.978;2023-07-29T13:57:10;1.95;;;1.58;;
25437;SDS011;13364;49.084;9.978;2023-07-29T13:59:37;1.95;;;1.75;;
25437;SDS011;13364;49.084;9.978;2023-07-29T14:02:05;4.45;;;1.60;;
25437;SDS011;13364;49.084;9.978;2023-07-29T14:04:32;3.03;;;1.73;;
25437;SDS011;13364;49.084;9.978;2023-07-29T14:07:00;3.08;;;1.80;;
25437;SDS011;13364;49.084;9.978;2023-07-29T14:09:29;1.98;;;1.60;;
25437;SDS011;13364;49.084;9.978;2023-07-29T14:11:56;5.35;;;2.13;;
25437;SDS011;13364;49.084;9.978;2023-07-29T14:14:24;2.63;;;1.60;;
25437;SDS011;13364;49.084;9.978;2023-07-29T14:16:55;3.40;;;1.45;;
25437;SDS011;13364;49.084;9.978;2023-07-29T14:19:23;2.28;;;1.80;;
25437;SDS011;13364;49.084;9.978;2023-07-29T14:21:50;1.80;;;1.50;;
25437;SDS011;13364;49.084;9.978;2023-07-29T14:24:17;3.05;;;1.70;;
25437;SDS011;13364;49.084;9.978;2023-07-29T14:26:46;2.08;;;1.88;;
25437;SDS011;13364;49.084;9.978;2023-07-29T14:29:13;2.05;;;1.80;;
25437;SDS011;13364;49.084;9.978;2023-07-29T14:31:41;1.60;;;1.33;;
25437;SDS011;13364;49.084;9.978;2023-07-29T14:34:08;2.50;;;1.50;;
25437;SDS011;13364;49.084;9.978;2023-07-29T14:36:36;1.70;;;1.58;;
25437;SDS011;13364;49.084;9.978;2023-07-29T14:39:05;2.67;;;1.60;;
25437;SDS011;13364;49.084;9.978;2023-07-29T14:41:33;1.73;;;1.50;;
25437;SDS011;13364;49.084;9.978;2023-07-29T14:44:01;1.65;;;1.40;;
25437;SDS011;13364;49.084;9.978;2023-07-29T14:46:28;3.85;;;1.77;;
25437;SDS011;13364;49.084;9.978;2023-07-29T14:48:55;2.47;;;1.70;;
25437;SDS011;13364;49.084;9.978;2023-07-29T14:51:22;3.83;;;1.65;;
25437;SDS011;13364;49.084;9.978;2023-07-29T14:53:50;2.97;;;1.50;;
25437;SDS011;13364;49.084;9.978;2023-07-29T14:56:17;2.22;;;1.58;;
25437;SDS011;13364;49.084;9.978;2023-07-29T14:58:45;1.48;;;1.38;;
25437;SDS011;13364;49.084;9.978;2023-07-29T15:01:12;5.00;;;1.40;;
25437;SDS011;13364;49.084;9.978;2023-07-29T15:03:39;1.55;;;1.45;;
25437;SDS011;13364;49.084;9.978;2023-07-29T15:06:08;1.43;;;1.33;;
25437;SDS011;13364;49.084;9.978;2023-07-29T15:08:35;1.70;;;1.60;;
25437;SDS011;13364;49.084;9.978;2023-07-29T15:11:02;1.70;;;1.60;;
25437;SDS011;13364;49.084;9.978;2023-07-29T15:13:29;1.50;;;1.40;;
25437;SDS011;13364;49.084;9.978;2023-07-29T15:15:57;2.47;;;1.50;;
25437;SDS011;13364;49.084;9.978;2023-07-29T15:18:25;2.13;;;1.70;;
25437;SDS011;13364;49.084;9.978;2023-07-29T15:20:56;1.77;;;1.63;;
25437;SDS011;13364;49.084;9.978;2023-07-29T15:23:24;4.00;;;1.55;;
25437;SDS011;13364;49.084;9.978;2023-07-29T15:25:51;3.05;;;1.50;;
25437;SDS011;13364;49.084;9.978;2023-07-29T15:28:18;3.45;;;2.00;;
25437;SDS011;13364;49.084;9.978;2023-07-29T15:30:45;2.03;;;1.65;;
25437;SDS011;13364;49.084;9.978;2023-07-29T15:33:12;1.55;;;1.35;;
25437;SDS011;13364;49.084;9.978;2023-07-29T15:35:40;1.90;;;1.42;;
25437;SDS011;13364;49.084;9.978;2023-07-29T15:38:07;3.85;;;1.27;;
25437;SDS011;13364;49.084;9.978;2023-07-29T15:40:34;1.42;;;1.33;;
25437;SDS011;13364;49.084;9.978;2023-07-29T15:43:01;3.80;;;1.70;;
25437;SDS011;13364;49.084;9.978;2023-07-29T15:45:28;2.45;;;1.88;;
25437;SDS011;13364;49.084;9.978;2023-07-29T15:47:55;4.05;;;2.00;;